Terminal Aerodrome Forecast
Issued by NWS Portland, OR

Home | Current Version | Previous Version | Text Only | Print | Product List | Glossary On
Versions: 1 2 3 4 5 6 7 8 9 10 11 12 13 14 15 16 17 18 19 20 21 22 23 24 25 26 27 28 29 30 31 32 33 34 35 36 37 38 39 40 41 42 43 44 45
000
FTUS46 KPQR 140537
TAFEUG
TAF
KEUG 140537Z 1406/1506 00000KT 3/4SM BR OVC002
      TEMPO 1408/1412 1/4SM FG VV002
     FM141800 00000KT 1SM BR OVC004
     FM142000 14003KT 2SM BR OVC004
     FM142200 15004KT 5SM BR BKN007 BKN120=

USA.gov is the U.S. government's official web portal to all federal, state and local government web resources and services.